Time;durP1;ratioP1;P1;durP2;ratioP2;P2;SDS_P1;SDS_P2;PMS_P1;PMS_P2;Temp;Humidity;BMP_temperature;BMP_pressure;BME280_temperature;BME280_humidity;BME280_pressure;Samples;Min_cycle;Max_cycle;Signal;HPM_P1;HPM_P2
2022/08/02 00:02:24;;;;;;;7.65;3.10;;;14.90;99.90;;;;;;5051753;28;20037;-70
2022/08/02 00:04:50;;;;;;;9.40;2.55;;;14.70;99.90;;;;;;5052290;28;20041;-70
2022/08/02 00:07:16;;;;;;;7.05;2.78;;;14.70;99.90;;;;;;5052354;28;20041;-70
2022/08/02 00:09:42;;;;;;;7.40;2.75;;;14.50;99.90;;;;;;5053872;28;20045;-70
2022/08/02 00:12:09;;;;;;;5.18;2.63;;;14.70;99.90;;;;;;5052549;28;20095;-70
2022/08/02 00:14:35;;;;;;;6.88;3.25;;;14.70;99.90;;;;;;5052004;28;20414;-69
2022/08/02 00:17:00;;;;;;;10.27;3.15;;;14.60;99.90;;;;;;5052374;28;20045;-70
2022/08/02 00:19:26;;;;;;;13.68;4.95;;;14.50;99.90;;;;;;5052296;28;20048;-70
2022/08/02 00:21:52;;;;;;;6.13;3.10;;;14.90;99.90;;;;;;5053542;28;20367;-70
2022/08/02 00:24:17;;;;;;;9.88;3.05;;;14.60;99.90;;;;;;5053350;28;20044;-70
2022/08/02 00:26:43;;;;;;;9.50;3.10;;;14.40;99.90;;;;;;5052190;28;20414;-70
2022/08/02 00:29:09;;;;;;;10.75;3.15;;;14.50;99.90;;;;;;5053296;28;20073;-70
2022/08/02 00:31:34;;;;;;;7.47;2.70;;;14.60;99.90;;;;;;5053402;28;20052;-70
2022/08/02 00:34:00;;;;;;;8.52;3.30;;;14.40;99.90;;;;;;5035092;28;20037;-69
2022/08/02 00:36:25;;;;;;;8.30;3.13;;;14.40;99.90;;;;;;5051962;28;20072;-70
2022/08/02 00:38:51;;;;;;;9.65;3.80;;;15.00;99.90;;;;;;5053246;28;20037;-70
2022/08/02 00:41:19;;;;;;;15.13;3.78;;;14.20;99.90;;;;;;5035701;28;20040;-70
2022/08/02 00:43:45;;;;;;;5.38;3.22;;;14.30;99.90;;;;;;5052798;28;20459;-69
2022/08/02 00:46:12;;;;;;;9.52;3.25;;;14.10;99.90;;;;;;5052055;28;20068;-70
2022/08/02 00:48:38;;;;;;;11.32;3.38;;;14.30;99.90;;;;;;5052103;28;20473;-70
2022/08/02 00:51:04;;;;;;;6.55;3.15;;;16.10;99.90;;;;;;5035246;28;20120;-70
2022/08/02 00:53:29;;;;;;;10.70;3.30;;;14.20;99.90;;;;;;5052993;28;20041;-70
2022/08/02 00:55:55;;;;;;;10.13;3.63;;;14.30;99.90;;;;;;5051396;28;20029;-70
2022/08/02 00:58:21;;;;;;;8.20;3.50;;;14.10;99.90;;;;;;5052764;28;20044;-70
2022/08/02 01:00:46;;;;;;;9.95;3.20;;;14.20;99.90;;;;;;5053049;28;20037;-70
2022/08/02 01:03:12;;;;;;;9.05;3.42;;;14.10;99.90;;;;;;5051914;28;20124;-70
2022/08/02 01:05:38;;;;;;;6.95;3.67;;;14.20;99.90;;;;;;5034667;28;20041;-70
2022/08/02 01:08:04;;;;;;;10.30;3.97;;;14.10;99.90;;;;;;5052522;28;20040;-70
2022/08/02 01:10:29;;;;;;;5.47;3.20;;;14.40;99.90;;;;;;5052667;28;20037;-70
2022/08/02 01:12:55;;;;;;;5.88;3.50;;;13.90;99.90;;;;;;5052843;28;20432;-70
2022/08/02 01:15:21;;;;;;;9.48;4.07;;;13.90;99.90;;;;;;5051041;28;20120;-70
2022/08/02 01:17:53;;;;;;;12.50;4.00;;;13.90;99.90;;;;;;5034899;28;20418;-70
2022/08/02 01:20:46;;;;;;;5.18;2.78;;;13.80;99.90;;;;;;5051468;28;20056;-70
2022/08/02 01:23:41;;;;;;;7.72;3.20;;;13.90;99.90;;;;;;5051499;28;20045;-70
2022/08/02 01:26:36;;;;;;;9.90;3.30;;;14.00;99.90;;;;;;5052217;28;20040;-70
2022/08/02 01:29:07;;;;;;;10.75;3.58;;;14.00;99.90;;;;;;5051294;28;20044;-70
2022/08/02 01:31:54;;;;;;;9.00;3.45;;;13.90;99.90;;;;;;5034520;28;20090;-70
2022/08/02 01:34:38;;;;;;;9.05;3.05;;;14.00;99.90;;;;;;5052211;28;20114;-69
2022/08/02 01:37:14;;;;;;;7.28;3.47;;;13.90;99.90;;;;;;5050991;28;20052;-70
2022/08/02 01:39:43;;;;;;;8.15;3.53;;;13.90;99.90;;;;;;5052335;28;20510;-70
2022/08/02 01:42:09;;;;;;;8.50;3.92;;;13.60;99.90;;;;;;5050737;28;20414;-70
2022/08/02 01:44:38;;;;;;;6.80;3.35;;;13.80;99.90;;;;;;5050409;28;20045;-70
2022/08/02 01:47:14;;;;;;;7.28;3.17;;;13.70;99.90;;;;;;5050727;28;20045;-70
2022/08/02 01:49:43;;;;;;;11.07;3.38;;;13.70;99.90;;;;;;5050540;28;20041;-70
2022/08/02 01:52:22;;;;;;;8.07;3.28;;;13.80;99.90;;;;;;5051979;28;20041;-70
2022/08/02 01:55:07;;;;;;;7.93;2.90;;;13.90;99.90;;;;;;5050522;28;20037;-70
2022/08/02 01:57:37;;;;;;;8.57;2.85;;;13.70;99.90;;;;;;5050643;28;20048;-70
2022/08/02 02:00:06;;;;;;;5.93;2.58;;;13.90;99.90;;;;;;5050477;28;20049;-70
2022/08/02 02:02:35;;;;;;;13.27;3.33;;;13.70;99.90;;;;;;5050674;28;20056;-70
2022/08/02 02:05:03;;;;;;;8.40;3.05;;;13.90;99.90;;;;;;5051465;28;20116;-70
2022/08/02 02:07:32;;;;;;;10.00;3.33;;;13.70;99.90;;;;;;5050499;28;20120;-70
2022/08/02 02:09:59;;;;;;;7.88;2.83;;;13.90;99.90;;;;;;5050397;28;20062;-70
2022/08/02 02:12:27;;;;;;;8.38;3.50;;;14.00;99.90;;;;;;5050313;28;20125;-70
2022/08/02 02:14:54;;;;;;;10.07;3.15;;;13.60;99.90;;;;;;5050156;28;20040;-70
2022/08/02 02:17:21;;;;;;;4.32;2.80;;;13.70;99.90;;;;;;5051489;28;20048;-70
2022/08/02 02:19:48;;;;;;;12.70;3.80;;;13.60;99.90;;;;;;5051583;28;20037;-70
2022/08/02 02:22:13;;;;;;;11.68;3.20;;;13.80;99.90;;;;;;5051363;28;20514;-70
2022/08/02 02:24:39;;;;;;;5.80;2.88;;;13.70;99.90;;;;;;5051316;28;20123;-70
2022/08/02 02:27:08;;;;;;;10.57;3.22;;;13.90;99.90;;;;;;5050909;28;20068;-70
2022/08/02 02:29:35;;;;;;;7.72;2.70;;;13.90;99.90;;;;;;5050059;28;20048;-70
2022/08/02 02:32:04;;;;;;;10.63;2.88;;;13.90;99.90;;;;;;5051209;28;20053;-70
2022/08/02 02:34:38;;;;;;;7.70;3.10;;;13.70;99.90;;;;;;5050006;28;20451;-69
2022/08/02 02:37:07;;;;;;;11.52;4.30;;;13.90;99.90;;;;;;5051426;28;20110;-70
2022/08/02 02:39:35;;;;;;;6.07;3.65;;;13.80;99.90;;;;;;5050151;28;20041;-70
2022/08/02 02:42:06;;;;;;;7.00;2.80;;;13.60;99.90;;;;;;5050269;28;20433;-70
2022/08/02 02:44:33;;;;;;;11.90;3.95;;;13.70;99.90;;;;;;5050995;28;20041;-70
2022/08/02 02:47:00;;;;;;;11.93;3.42;;;13.70;99.90;;;;;;5051407;28;20056;-70
2022/08/02 02:49:26;;;;;;;7.85;3.17;;;13.70;99.90;;;;;;5051213;28;20510;-70
2022/08/02 02:51:52;;;;;;;11.68;3.67;;;13.60;99.90;;;;;;5049863;28;20036;-70
2022/08/02 02:54:19;;;;;;;4.68;2.65;;;13.70;99.90;;;;;;5050916;28;20045;-70
2022/08/02 02:56:46;;;;;;;6.30;3.22;;;13.70;99.90;;;;;;5051096;28;20048;-70
2022/08/02 02:59:14;;;;;;;6.15;4.07;;;13.80;99.90;;;;;;5033224;28;20045;-70
2022/08/02 03:01:39;;;;;;;7.97;2.45;;;13.60;99.90;;;;;;5050084;28;20060;-70
2022/08/02 03:04:08;;;;;;;9.85;3.05;;;13.80;99.90;;;;;;5049530;28;20443;-71
2022/08/02 03:06:36;;;;;;;6.43;2.70;;;13.60;99.90;;;;;;5050227;28;20052;-70
2022/08/02 03:09:03;;;;;;;10.90;3.53;;;13.60;99.90;;;;;;5051319;28;20110;-70
2022/08/02 03:11:30;;;;;;;8.38;3.10;;;13.70;99.90;;;;;;5033901;28;20048;-70
2022/08/02 03:14:00;;;;;;;9.02;3.67;;;13.60;99.90;;;;;;5051330;28;20072;-69
2022/08/02 03:16:27;;;;;;;7.10;3.63;;;13.90;99.90;;;;;;5033418;28;20040;-70
2022/08/02 03:18:53;;;;;;;12.77;3.40;;;13.80;99.90;;;;;;5050016;28;20510;-70
2022/08/02 03:21:19;;;;;;;8.20;3.00;;;13.70;99.90;;;;;;5049563;28;20115;-70
2022/08/02 03:23:45;;;;;;;7.40;2.95;;;13.70;99.90;;;;;;5033015;28;20037;-69
2022/08/02 03:26:11;;;;;;;8.50;4.22;;;13.80;99.90;;;;;;5050790;28;20041;-70
2022/08/02 03:28:37;;;;;;;11.50;3.58;;;13.60;99.90;;;;;;5049589;28;20579;-70
2022/08/02 03:31:03;;;;;;;8.18;3.35;;;13.80;99.90;;;;;;5050885;28;20036;-70
2022/08/02 03:33:29;;;;;;;6.38;2.97;;;13.80;99.90;;;;;;5050742;28;20079;-70
2022/08/02 03:35:58;;;;;;;5.47;3.20;;;13.70;99.90;;;;;;5049518;28;20032;-70
2022/08/02 03:38:25;;;;;;;6.72;3.22;;;13.60;99.90;;;;;;5052768;28;20087;-70
2022/08/02 03:40:53;;;;;;;9.55;3.00;;;13.50;99.90;;;;;;5054542;28;20108;-70
2022/08/02 03:43:20;;;;;;;6.40;3.10;;;13.70;99.90;;;;;;5053004;28;20048;-70
2022/08/02 03:45:47;;;;;;;9.40;3.80;;;14.20;99.90;;;;;;5036238;28;20055;-70
2022/08/02 03:48:14;;;;;;;9.00;3.08;;;13.50;99.90;;;;;;5052878;28;20079;-70
2022/08/02 03:50:41;;;;;;;10.18;3.25;;;13.70;99.90;;;;;;5054302;28;20049;-70
2022/08/02 03:53:07;;;;;;;9.45;3.72;;;13.60;99.90;;;;;;5052812;28;20052;-70
2022/08/02 03:55:34;;;;;;;7.60;3.42;;;13.60;99.90;;;;;;5052739;28;20452;-70
2022/08/02 03:58:00;;;;;;;14.07;3.70;;;13.40;99.90;;;;;;5052815;28;20102;-70
2022/08/02 04:00:26;;;;;;;6.72;3.55;;;13.70;99.90;;;;;;5052957;28;20115;-69
2022/08/02 04:02:52;;;;;;;5.55;2.80;;;13.70;99.90;;;;;;5053801;28;20617;-70
2022/08/02 04:05:18;;;;;;;7.45;3.28;;;13.60;99.90;;;;;;5053699;28;20116;-70
2022/08/02 04:07:44;;;;;;;8.98;3.97;;;13.50;99.90;;;;;;5052361;28;20505;-70
2022/08/02 04:10:11;;;;;;;11.07;3.78;;;13.60;99.90;;;;;;5053869;28;20037;-70
2022/08/02 04:12:37;;;;;;;12.73;3.65;;;13.50;99.90;;;;;;5052386;28;20037;-70
2022/08/02 04:15:05;;;;;;;20.00;4.15;;;13.70;99.90;;;;;;5052405;28;20043;-70
2022/08/02 04:17:33;;;;;;;9.65;3.28;;;13.50;99.90;;;;;;5053556;28;20033;-70
2022/08/02 04:20:13;;;;;;;7.88;2.95;;;13.50;99.90;;;;;;5052555;28;20037;-70
2022/08/02 04:22:50;;;;;;;11.07;3.22;;;15.10;99.90;;;;;;5053128;28;20498;-71
2022/08/02 04:25:18;;;;;;;10.30;3.35;;;13.70;99.90;;;;;;5052309;28;20116;-70
2022/08/02 04:27:45;;;;;;;8.93;3.92;;;13.60;99.90;;;;;;5053597;28;20048;-70
2022/08/02 04:30:12;;;;;;;7.10;3.15;;;13.60;99.90;;;;;;5053449;28;20515;-70
2022/08/02 04:32:38;;;;;;;12.23;3.97;;;13.50;99.90;;;;;;5053362;28;20079;-70
2022/08/02 04:35:06;;;;;;;7.55;3.25;;;13.60;99.90;;;;;;5053045;28;20130;-70
2022/08/02 04:37:32;;;;;;;10.55;3.60;;;13.60;99.90;;;;;;5051960;28;20044;-70
2022/08/02 04:39:58;;;;;;;10.82;4.72;;;13.50;99.90;;;;;;5051872;28;20127;-70
2022/08/02 04:42:25;;;;;;;6.80;2.90;;;13.50;99.90;;;;;;5053467;28;20076;-70
2022/08/02 04:44:52;;;;;;;9.30;3.30;;;15.20;99.90;;;;;;5051486;28;20120;-70
2022/08/02 04:47:19;;;;;;;8.85;3.90;;;13.80;99.90;;;;;;5051775;28;20037;-70
2022/08/02 04:49:45;;;;;;;12.10;3.67;;;13.90;99.90;;;;;;5051168;28;20494;-70
2022/08/02 04:52:11;;;;;;;7.45;3.28;;;13.90;99.90;;;;;;5051732;28;20037;-70
2022/08/02 04:54:37;;;;;;;11.68;3.88;;;14.00;99.90;;;;;;5051286;28;20040;-70
2022/08/02 04:57:53;;;;;;;5.60;3.22;;;14.00;99.90;;;;;;5051649;28;20041;-70
2022/08/02 04:59:48;;;;;;;10.38;3.63;;;14.30;99.90;;;;;;5052696;28;20521;-70
2022/08/02 05:02:14;;;;;;;14.27;4.18;;;14.30;99.90;;;;;;5052781;28;20072;-70
2022/08/02 05:04:39;;;;;;;7.35;3.05;;;14.40;99.90;;;;;;5051114;28;20053;-70
2022/08/02 05:07:05;;;;;;;6.10;2.65;;;14.40;99.90;;;;;;5067819;22;20132;-75
2022/08/02 05:09:30;;;;;;;9.30;2.83;;;15.90;99.90;;;;;;5051844;28;20037;-75
2022/08/02 05:11:56;;;;;;;9.13;3.28;;;14.70;99.90;;;;;;5053108;28;20033;-74
2022/08/02 05:14:22;;;;;;;9.00;3.78;;;14.60;99.90;;;;;;5034657;28;20039;-75
2022/08/02 05:16:47;;;;;;;6.72;3.25;;;15.20;99.90;;;;;;5034946;28;20520;-75
2022/08/02 05:19:13;;;;;;;17.63;3.80;;;15.70;99.90;;;;;;5051468;28;20037;-74
2022/08/02 05:21:38;;;;;;;10.35;3.30;;;14.70;99.90;;;;;;5051790;28;20083;-74
2022/08/02 05:24:04;;;;;;;6.47;3.15;;;14.90;99.90;;;;;;5051403;28;20045;-75
2022/08/02 05:26:30;;;;;;;11.07;3.20;;;15.00;99.90;;;;;;5052820;28;20546;-75
2022/08/02 05:28:55;;;;;;;6.93;2.95;;;14.80;99.90;;;;;;5051498;28;20048;-74
2022/08/02 05:31:21;;;;;;;10.88;3.38;;;14.90;99.90;;;;;;5052599;28;20071;-74
2022/08/02 05:33:47;;;;;;;7.40;2.88;;;14.50;99.90;;;;;;5051176;28;20398;-74
2022/08/02 05:36:12;;;;;;;9.68;3.03;;;14.90;99.90;;;;;;5051118;28;20040;-74
2022/08/02 05:38:38;;;;;;;13.10;3.53;;;14.80;99.90;;;;;;5052700;28;20414;-74
2022/08/02 05:41:05;;;;;;;3.78;2.85;;;15.00;99.90;;;;;;5052480;28;20102;-75
2022/08/02 05:43:30;;;;;;;8.60;3.38;;;15.00;99.90;;;;;;5051455;28;20052;-74
2022/08/02 05:45:56;;;;;;;8.18;3.10;;;15.00;99.90;;;;;;5050932;28;20033;-74
2022/08/02 05:48:22;;;;;;;6.95;2.47;;;15.20;99.90;;;;;;5050904;28;20087;-74
2022/08/02 05:50:52;;;;;;;13.07;2.85;;;15.30;99.90;;;;;;5051005;28;20049;-75
2022/08/02 05:53:54;;;;;;;6.93;3.03;;;16.10;99.90;;;;;;5051202;28;20045;-75
2022/08/02 05:56:24;;;;;;;10.25;2.75;;;15.60;99.90;;;;;;5051967;28;20029;-74
2022/08/02 05:59:01;;;;;;;6.80;2.72;;;16.00;99.90;;;;;;5034753;28;20047;-74
2022/08/02 06:01:32;;;;;;;9.32;2.78;;;15.90;99.90;;;;;;5055627;28;20098;-74
2022/08/02 06:04:00;;;;;;;8.77;3.30;;;16.10;99.90;;;;;;5044616;28;20048;-74
2022/08/02 06:06:31;;;;;;;7.05;2.85;;;16.10;99.90;;;;;;5043125;28;20044;-74
2022/08/02 06:09:00;;;;;;;11.18;2.70;;;16.30;99.90;;;;;;5034613;28;20070;-75
2022/08/02 06:11:35;;;;;;;7.18;2.80;;;17.40;99.90;;;;;;5043669;28;20465;-74
2022/08/02 06:14:05;;;;;;;7.65;2.55;;;16.80;99.90;;;;;;5046847;28;20489;-75
2022/08/02 06:16:31;;;;;;;7.03;2.55;;;17.70;99.90;;;;;;5047249;28;20108;-74
2022/08/02 06:18:58;;;;;;;11.20;3.17;;;16.90;99.90;;;;;;5047145;28;20076;-73
2022/08/02 06:21:25;;;;;;;13.82;2.58;;;17.00;99.90;;;;;;5043600;28;20036;-73
2022/08/02 06:23:51;;;;;;;7.75;2.40;;;17.00;99.90;;;;;;5039105;28;20118;-75
2022/08/02 06:26:17;;;;;;;6.45;3.08;;;17.10;99.90;;;;;;5057345;28;20095;-73
2022/08/02 06:28:44;;;;;;;8.38;2.63;;;17.10;99.90;;;;;;5047223;28;20041;-73
2022/08/02 06:31:12;;;;;;;5.38;2.33;;;17.30;99.90;;;;;;5048586;28;20134;-73
2022/08/02 06:33:38;;;;;;;7.40;3.03;;;17.40;99.90;;;;;;5051470;28;20168;-75
2022/08/02 06:36:24;;;;;;;8.48;2.40;;;17.30;99.90;;;;;;5033852;28;20142;-74
2022/08/02 06:39:18;;;;;;;3.45;1.85;;;17.30;99.90;;;;;;5045199;28;20044;-73
2022/08/02 06:41:46;;;;;;;5.82;2.20;;;17.40;99.90;;;;;;5046449;28;20048;-73
2022/08/02 06:44:12;;;;;;;4.65;2.10;;;17.50;99.90;;;;;;5044915;28;20659;-74
2022/08/02 06:46:37;;;;;;;5.88;2.15;;;17.70;99.90;;;;;;5048225;28;20143;-74
2022/08/02 06:49:03;;;;;;;8.00;1.77;;;17.90;99.90;;;;;;5047117;28;20044;-74
2022/08/02 06:51:29;;;;;;;6.80;2.15;;;18.20;99.90;;;;;;5046584;28;20582;-74
2022/08/02 06:53:54;;;;;;;2.50;1.80;;;18.30;99.90;;;;;;5048199;28;20037;-74
2022/08/02 06:56:20;;;;;;;6.63;1.77;;;19.30;99.90;;;;;;5030244;28;20048;-73
2022/08/02 06:58:46;;;;;;;3.60;1.80;;;19.10;99.90;;;;;;5048006;28;20037;-73
2022/08/02 07:01:12;;;;;;;6.68;1.85;;;18.20;99.90;;;;;;5048237;28;20494;-73
2022/08/02 07:03:39;;;;;;;6.05;1.90;;;19.30;99.90;;;;;;5048369;28;20136;-78
2022/08/02 07:06:09;;;;;;;8.95;1.98;;;18.40;99.90;;;;;;5049063;28;20047;-74
2022/08/02 07:08:38;;;;;;;5.57;1.85;;;18.40;99.90;;;;;;5049823;28;20453;-74
2022/08/02 07:11:08;;;;;;;3.35;1.92;;;18.20;99.90;;;;;;5044296;28;20116;-74
2022/08/02 07:13:34;;;;;;;6.65;1.73;;;18.30;99.90;;;;;;5038713;28;20047;-74
2022/08/02 07:16:01;;;;;;;3.70;1.38;;;19.20;99.90;;;;;;5057258;28;20108;-74
2022/08/02 07:18:27;;;;;;;8.43;1.50;;;18.30;99.90;;;;;;5060675;28;20041;-73
2022/08/02 07:20:53;;;;;;;5.40;1.90;;;18.60;99.90;;;;;;5057593;28;20040;-72
2022/08/02 07:23:19;;;;;;;7.72;1.98;;;18.90;99.90;;;;;;5063800;28;20124;-73
2022/08/02 07:25:45;;;;;;;4.30;1.65;;;19.00;99.90;;;;;;5063053;28;20090;-72
2022/08/02 07:28:14;;;;;;;3.45;1.50;;;19.20;99.90;;;;;;5054295;28;20036;-72
2022/08/02 07:30:40;;;;;;;4.25;1.65;;;19.20;99.90;;;;;;5073951;28;20040;-72
2022/08/02 07:33:06;;;;;;;5.93;1.50;;;19.40;99.90;;;;;;5074262;28;20371;-73
2022/08/02 07:35:31;;;;;;;6.03;1.70;;;19.50;99.90;;;;;;5074599;28;20082;-73
2022/08/02 07:37:57;;;;;;;5.55;1.58;;;19.50;99.90;;;;;;5073556;28;20513;-72
2022/08/02 07:40:23;;;;;;;4.63;1.63;;;19.70;99.90;;;;;;5073527;28;20047;-72
2022/08/02 07:42:51;;;;;;;7.65;1.52;;;19.80;99.90;;;;;;5073719;28;20051;-72
2022/08/02 07:45:18;;;;;;;3.10;1.67;;;20.20;99.90;;;;;;5073197;28;20048;-73
2022/08/02 07:47:44;;;;;;;3.75;1.50;;;19.80;99.90;;;;;;5074716;28;20490;-72
2022/08/02 07:50:11;;;;;;;5.38;1.73;;;20.00;99.90;;;;;;5073491;28;20032;-73
2022/08/02 07:52:38;;;;;;;7.13;2.47;;;19.90;99.90;;;;;;5073276;28;20039;-73
2022/08/02 07:55:05;;;;;;;2.72;1.30;;;20.10;99.90;;;;;;5074367;28;20577;-72
2022/08/02 07:57:31;;;;;;;5.43;1.50;;;20.20;99.90;;;;;;5073419;28;20079;-72
2022/08/02 07:59:57;;;;;;;3.47;1.52;;;20.10;99.90;;;;;;5073241;28;20044;-72
2022/08/02 08:02:23;;;;;;;2.63;1.20;;;20.30;99.90;;;;;;5070566;28;20036;-73
2022/08/02 08:04:50;;;;;;;2.67;1.23;;;20.30;99.90;;;;;;5063639;28;20032;-72
2022/08/02 08:07:15;;;;;;;1.85;1.00;;;20.30;99.90;;;;;;5057191;28;20048;-72
2022/08/02 08:09:42;;;;;;;3.10;1.38;;;20.70;99.90;;;;;;5033090;28;20037;-73
2022/08/02 08:12:09;;;;;;;6.20;1.80;;;20.50;99.90;;;;;;5051543;28;20064;-73
2022/08/02 08:14:35;;;;;;;4.75;1.75;;;20.70;99.90;;;;;;5052536;28;20581;-73
2022/08/02 08:17:02;;;;;;;5.05;1.50;;;20.80;99.90;;;;;;5052475;28;20068;-73
2022/08/02 08:19:28;;;;;;;3.00;1.20;;;20.80;99.90;;;;;;5054177;28;20041;-72
2022/08/02 08:21:53;;;;;;;3.92;1.50;;;20.80;99.90;;;;;;5054156;28;20525;-73
2022/08/02 08:24:19;;;;;;;3.00;1.20;;;21.10;99.90;;;;;;5053418;28;20407;-73
2022/08/02 08:26:44;;;;;;;3.65;1.45;;;21.00;99.90;;;;;;5062380;28;20037;-72
2022/08/02 08:29:10;;;;;;;3.83;1.90;;;21.20;99.90;;;;;;5055029;28;20063;-72
2022/08/02 08:31:36;;;;;;;3.50;1.35;;;21.50;99.90;;;;;;5052327;28;20036;-72
2022/08/02 08:34:02;;;;;;;3.00;1.10;;;21.50;99.90;;;;;;5053743;28;20045;-73
2022/08/02 08:36:28;;;;;;;3.33;1.50;;;23.30;99.90;;;;;;5052319;28;20507;-73
2022/08/02 08:38:54;;;;;;;3.70;1.50;;;21.90;99.90;;;;;;5053767;28;20032;-73
2022/08/02 08:41:19;;;;;;;4.55;1.38;;;22.70;99.90;;;;;;5052698;28;20033;-73
2022/08/02 08:43:46;;;;;;;4.30;1.42;;;22.00;99.90;;;;;;5053436;28;20116;-73
2022/08/02 08:46:27;;;;;;;12.82;2.15;;;22.00;99.90;;;;;;5051963;28;20051;-73
2022/08/02 08:48:59;;;;;;;3.50;1.50;;;22.00;99.90;;;;;;5053702;28;20045;-73
2022/08/02 08:51:37;;;;;;;3.63;1.23;;;22.20;99.90;;;;;;5056022;28;20025;-73
2022/08/02 08:54:06;;;;;;;3.97;2.03;;;22.20;99.90;;;;;;5051596;28;20044;-72
2022/08/02 08:56:34;;;;;;;2.58;1.70;;;22.30;99.90;;;;;;5053640;28;20045;-73
2022/08/02 08:59:01;;;;;;;5.82;1.98;;;22.20;99.90;;;;;;5053393;28;20051;-73
2022/08/02 09:01:27;;;;;;;5.95;1.80;;;22.30;99.90;;;;;;5052255;28;20486;-73
2022/08/02 09:03:53;;;;;;;5.20;1.80;;;22.20;99.90;;;;;;5051458;28;20045;-73
2022/08/02 09:06:19;;;;;;;5.03;1.80;;;22.40;99.90;;;;;;5052898;28;20094;-73
2022/08/02 09:08:45;;;;;;;4.22;1.55;;;22.30;99.90;;;;;;5051615;28;20047;-72
2022/08/02 09:11:16;;;;;;;4.10;2.22;;;22.30;99.90;;;;;;5052787;28;20129;-73
2022/08/02 09:13:49;;;;;;;3.60;1.30;;;22.70;99.90;;;;;;5051592;28;20044;-73
2022/08/02 09:16:15;;;;;;;4.60;1.67;;;23.80;99.90;;;;;;5052828;28;20049;-73
2022/08/02 09:18:44;;;;;;;4.65;1.75;;;22.90;99.90;;;;;;5052725;28;20049;-73
2022/08/02 09:21:11;;;;;;;5.03;1.88;;;22.80;99.90;;;;;;5051424;28;20040;-73
2022/08/02 09:23:43;;;;;;;5.28;1.90;;;22.60;99.90;;;;;;5053015;28;20119;-73
2022/08/02 09:26:12;;;;;;;7.13;2.13;;;22.60;99.90;;;;;;5052703;28;20049;-73
2022/08/02 09:28:40;;;;;;;3.60;1.70;;;22.70;99.90;;;;;;5052682;28;20276;-72
2022/08/02 09:31:14;;;;;;;3.22;1.65;;;23.00;99.90;;;;;;5052750;28;20029;-73
2022/08/02 09:33:41;;;;;;;6.13;2.22;;;23.50;99.90;;;;;;5051635;28;20080;-73
2022/08/02 09:36:08;;;;;;;4.97;1.98;;;23.80;99.90;;;;;;5051989;28;20445;-73
2022/08/02 09:38:35;;;;;;;4.10;2.80;;;24.20;99.90;;;;;;5051200;28;20041;-73
2022/08/02 09:41:02;;;;;;;6.38;2.53;;;24.00;99.90;;;;;;5051180;28;20044;-73
2022/08/02 09:43:34;;;;;;;8.52;2.50;;;23.50;99.90;;;;;;5052450;28;20044;-73
2022/08/02 09:46:13;;;;;;;8.00;2.35;;;23.60;99.90;;;;;;5051388;28;20076;-73
2022/08/02 09:48:53;;;;;;;5.22;2.60;;;23.60;99.90;;;;;;5034182;28;20074;-73
2022/08/02 09:51:27;;;;;;;6.20;2.83;;;23.90;99.90;;;;;;5052388;28;20045;-73
2022/08/02 09:53:55;;;;;;;4.85;3.17;;;23.90;99.90;;;;;;5050738;28;20131;-73
2022/08/02 09:56:23;;;;;;;6.05;2.55;;;23.90;99.90;;;;;;5050953;28;20132;-73
2022/08/02 09:58:51;;;;;;;8.07;3.75;;;23.90;99.90;;;;;;5051082;28;20068;-73
2022/08/02 10:01:18;;;;;;;7.70;2.80;;;24.20;99.90;;;;;;5050756;28;20052;-73
2022/08/02 10:03:59;;;;;;;6.43;3.83;;;23.90;99.90;;;;;;5050360;28;20033;-72
2022/08/02 10:06:25;;;;;;;6.10;3.15;;;24.50;99.90;;;;;;5050874;28;20086;-72
2022/08/02 10:08:54;;;;;;;7.97;3.55;;;24.30;99.90;;;;;;5050343;28;20091;-73
2022/08/02 10:11:21;;;;;;;5.53;3.28;;;24.30;99.90;;;;;;5046847;28;20047;-73
2022/08/02 10:13:48;;;;;;;9.02;3.70;;;24.90;99.90;;;;;;5046275;28;20481;-73
2022/08/02 10:16:15;;;;;;;6.03;3.28;;;24.20;99.90;;;;;;5046924;28;20037;-73
2022/08/02 10:18:41;;;;;;;7.63;3.65;;;23.80;99.90;;;;;;5047215;28;20052;-73
2022/08/02 10:21:13;;;;;;;4.63;3.28;;;23.90;99.90;;;;;;5046393;28;20043;-73
2022/08/02 10:23:41;;;;;;;7.18;3.40;;;24.20;99.90;;;;;;5045431;28;20423;-73
2022/08/02 10:26:07;;;;;;;6.43;3.33;;;24.20;99.90;;;;;;5046413;28;20517;-73
2022/08/02 10:28:33;;;;;;;6.05;2.85;;;24.60;99.90;;;;;;5044695;28;20055;-73
2022/08/02 10:31:01;;;;;;;4.28;3.08;;;24.80;99.90;;;;;;5048267;28;20506;-73
2022/08/02 10:33:28;;;;;;;6.55;3.72;;;24.60;99.90;;;;;;5047211;28;20040;-73
2022/08/02 10:35:57;;;;;;;9.82;3.65;;;24.50;99.90;;;;;;5048710;28;20060;-73
2022/08/02 10:38:23;;;;;;;7.18;3.67;;;24.60;99.90;;;;;;5049675;28;20037;-73
2022/08/02 10:40:52;;;;;;;8.02;4.32;;;24.60;99.90;;;;;;5050705;28;20041;-73
2022/08/02 10:43:30;;;;;;;5.22;3.75;;;24.40;99.90;;;;;;5051862;28;20055;-74
2022/08/02 10:46:35;;;;;;;7.05;3.67;;;24.70;99.90;;;;;;5051153;28;20076;-73
2022/08/02 10:49:11;;;;;;;6.78;4.03;;;24.60;99.90;;;;;;5054223;28;20123;-72
2022/08/02 10:52:00;;;;;;;4.65;3.50;;;24.40;99.90;;;;;;5054571;28;20041;-73
2022/08/02 10:54:31;;;;;;;5.07;3.33;;;24.50;99.90;;;;;;5054012;28;20045;-73
2022/08/02 10:56:59;;;;;;;6.72;4.03;;;24.70;99.90;;;;;;5046708;28;20116;-73
2022/08/02 10:59:35;;;;;;;7.28;4.43;;;25.00;99.90;;;;;;5047731;28;20517;-73
2022/08/02 11:02:03;;;;;;;8.05;4.43;;;25.60;99.90;;;;;;5057515;28;20056;-73
2022/08/02 11:04:35;;;;;;;7.72;4.63;;;25.50;99.90;;;;;;5054930;28;20048;-73
2022/08/02 11:09:38;;;;;;;5.05;3.47;;;25.10;99.90;;;;;;5073242;28;20049;-72
2022/08/02 11:12:09;;;;;;;6.65;3.35;;;26.10;99.90;;;;;;5056795;28;20032;-72
2022/08/02 11:14:37;;;;;;;4.72;3.47;;;25.10;99.90;;;;;;5074648;28;20064;-72
2022/08/02 11:17:04;;;;;;;15.80;5.05;;;24.90;99.90;;;;;;5056578;28;20547;-70
2022/08/02 11:19:30;;;;;;;4.63;2.75;;;24.90;99.90;;;;;;5062168;28;20078;-72
2022/08/02 11:22:17;;;;;;;6.03;4.00;;;24.70;99.90;;;;;;5040114;28;20090;-72
2022/08/02 11:24:43;;;;;;;4.97;3.40;;;24.50;99.90;;;;;;5074393;28;20043;-72
2022/08/02 11:27:17;;;;;;;5.60;4.20;;;24.90;99.90;;;;;;5039748;28;20127;-72
2022/08/02 11:29:44;;;;;;;4.70;3.65;;;25.80;99.90;;;;;;5056617;28;20547;-72
2022/08/02 11:32:21;;;;;;;8.68;5.28;;;24.80;99.90;;;;;;5074169;28;20036;-72
2022/08/02 11:34:49;;;;;;;8.73;6.00;;;25.30;99.90;;;;;;5056056;28;20037;-72
2022/08/02 11:37:34;;;;;;;8.52;5.43;;;25.30;99.90;;;;;;5089816;28;20040;-71
2022/08/02 11:40:00;;;;;;;9.63;4.43;;;25.40;99.90;;;;;;5066523;28;20044;-70
2022/08/02 11:42:33;;;;;;;18.05;5.70;;;27.00;99.90;;;;;;5072777;28;20109;-72
2022/08/02 11:44:59;;;;;;;8.73;5.72;;;25.50;99.90;;;;;;5070323;28;20104;-72
2022/08/02 11:47:25;;;;;;;12.05;5.38;;;25.70;99.90;;;;;;5092995;28;20040;-74
2022/08/02 11:49:50;;;;;;;6.97;5.50;;;25.30;99.90;;;;;;5092959;28;20100;-73
2022/08/02 11:52:16;;;;;;;7.72;5.78;;;25.50;99.90;;;;;;5076197;28;20036;-72
2022/08/02 11:54:42;;;;;;;8.18;5.93;;;25.10;99.90;;;;;;5075640;28;20032;-73
2022/08/02 11:57:13;;;;;;;9.88;5.53;;;25.20;99.90;;;;;;5075980;28;20036;-74
2022/08/02 11:59:41;;;;;;;6.95;5.72;;;25.00;99.90;;;;;;5068794;28;20040;-73
2022/08/02 12:02:07;;;;;;;9.80;6.63;;;24.80;99.90;;;;;;5065199;28;20032;-74
2022/08/02 12:04:34;;;;;;;11.18;6.32;;;24.90;99.90;;;;;;5075487;28;20044;-73
2022/08/02 12:07:02;;;;;;;10.57;7.07;;;25.10;99.90;;;;;;5065298;28;20048;-73
2022/08/02 12:09:29;;;;;;;10.30;7.30;;;24.90;99.90;;;;;;5081784;28;20048;-73
2022/08/02 12:11:56;;;;;;;11.38;6.47;;;25.00;99.90;;;;;;5055793;28;20032;-72
2022/08/02 12:14:24;;;;;;;11.20;7.53;;;26.50;99.90;;;;;;5073355;28;20459;-73
2022/08/02 12:19:35;;;;;;;13.82;6.70;;;24.90;99.90;;;;;;5066002;28;20056;-72
2022/08/02 12:22:16;;;;;;;9.23;7.03;;;25.60;99.90;;;;;;5074533;28;20028;-72
2022/08/02 12:24:48;;;;;;;9.85;7.72;;;24.90;99.90;;;;;;5055425;28;20059;-72
2022/08/02 12:27:34;;;;;;;11.17;7.70;;;24.50;99.90;;;;;;5084215;28;20041;-71
2022/08/02 12:30:03;;;;;;;13.18;8.32;;;24.60;99.90;;;;;;5055590;28;20119;-71
2022/08/02 12:32:29;;;;;;;13.90;8.45;;;24.60;99.90;;;;;;5056851;28;20036;-69
2022/08/02 12:35:15;;;;;;;12.85;8.55;;;24.40;99.90;;;;;;5036605;28;20096;-71
2022/08/02 12:37:43;;;;;;;11.07;7.68;;;23.60;99.90;;;;;;5074758;28;20048;-71
2022/08/02 12:40:22;;;;;;;11.32;7.07;;;25.20;99.90;;;;;;5073559;28;20047;-71
2022/08/02 12:42:50;;;;;;;10.93;7.70;;;24.20;99.90;;;;;;5073698;28;20044;-71
2022/08/02 12:45:17;;;;;;;13.52;8.98;;;24.50;99.90;;;;;;5055154;28;20498;-71
2022/08/02 12:47:51;;;;;;;12.68;8.38;;;24.50;99.90;;;;;;5057952;28;20041;-71
2022/08/02 12:50:22;;;;;;;20.67;11.15;;;25.40;99.90;;;;;;5055095;28;20051;-71
2022/08/02 12:52:49;;;;;;;16.02;10.25;;;24.40;99.90;;;;;;5073131;28;20398;-71
2022/08/02 12:55:27;;;;;;;14.15;9.98;;;24.20;99.90;;;;;;5072525;28;20486;-71
2022/08/02 12:58:01;;;;;;;17.40;10.10;;;24.60;99.90;;;;;;5072842;28;20036;-71
2022/08/02 13:00:36;;;;;;;14.63;8.75;;;24.30;99.90;;;;;;5054915;28;20044;-71